Alapuzha, India

12:13 PM IST on August 31, 2015 (GMT +0530)
Cochin International | | Change Station
CLOSE
Current Station
Airport
Location: Cochin International Airp,
Elevation: 26 ft
Nearby Weather Stations

Elev 26 ft 10.15 °N, 76.40 °E | Updated 43 minutes ago

Haze
Haze
88 °F
Feels Like 98 °F
N
5
Wind Variable Wind from West

Today
High -- | Low -- °F
--% Chance of Precip.
Yesterday
High -- | Low -- °F
Precip. -- in
6:15 AM 6:34 PM
Waning Gibbous, 97% visible
Pressure 29.86 in
Visibility 3.1 miles
Clouds Few 1500 ft
Scattered Clouds 2000 ft
Heat Index 98 °F
Dew Point 75 °F
Humidity 66%
Rainfall 0.00 in
Snow Depth Not available.
UV 13 out of 12
Pollen Not available.
Air Quality Not available.
Flu Activity Not available.
METAR VOCI 310600Z 27004KT 5000 HZ FEW015 SCT020 31/24 Q1011 NOSIG
Pressure 29.86 in
Visibility 3.1 miles
Clouds Few 1500 ft
Scattered Clouds 2000 ft
Heat Index 98 °F
Dew Point 75 °F
Humidity 66%
Rainfall 0.00 in
Snow Depth Not available.
UV 13 out of 12
Pollen Not available.
Air Quality Not available.
Flu Activity Not available.
METAR VOCI 310600Z 27004KT 5000 HZ FEW015 SCT020 31/24 Q1011 NOSIG

10-Day Weather Forecast

×

Almanac

Astronomy

Aug. 31, 2015 Rise Set
Actual Time
Civil Twilight
Nautical Twilight
Astronomical Twilight
Moon
Length of Visible Light
Length of Day
Tomorrow will be .
, % of the Moon is Illuminated

Today's Extremes

Country Highs Country Lows

Community

WunderPhotos

Upload Photos

1,851,217 photos uploaded!

WunderBlogs® & News

Nearby

Air Quality

  Air Quality AQ Index Pollutant
Not available.

Snow Depth

Station Depth Elevation

Earthquake Activity

City Distance Mag. Time & Date
Minimum magnitude displayed is 2.5.

Coastal Water Temperatures

Place Temperature

Stations

Nearby Weather Stations

Station Location Temp. Windchill Dew Point Humidity Wind Precip. Elev Updated Type